createdAt,value
2022-08-27T00:03:13.081Z,10.00
2022-08-27T00:08:14.850Z,7.68
2022-08-27T00:13:16.578Z,12.13
2022-08-27T00:18:22.437Z,13.32
2022-08-27T00:23:24.478Z,13.32
2022-08-27T00:28:28.079Z,13.73
2022-08-27T00:33:30.645Z,10.55
2022-08-27T00:38:32.385Z,13.68
2022-08-27T00:43:54.478Z,14.48
2022-08-27T00:49:00.408Z,14.43
2022-08-27T00:54:03.140Z,15.43
2022-08-27T00:59:05.237Z,13.45
2022-08-27T01:04:06.957Z,14.23
2022-08-27T01:09:14.154Z,15.50
2022-08-27T01:14:17.874Z,17.25
2022-08-27T01:19:38.033Z,18.15
2022-08-27T01:24:44.856Z,16.42
2022-08-27T01:29:47.582Z,14.38
2022-08-27T01:34:49.714Z,10.77
2022-08-27T01:39:53.443Z,17.35
2022-08-27T01:45:00.896Z,10.85
2022-08-27T01:50:09.290Z,13.23
2022-08-27T01:55:13.840Z,16.08
2022-08-27T02:00:23.653Z,16.08
2022-08-27T02:05:27.040Z,15.63
2022-08-27T02:10:33.557Z,15.43
2022-08-27T02:15:38.621Z,14.23
2022-08-27T02:20:41.367Z,12.32
2022-08-27T02:25:43.227Z,12.40
2022-08-27T02:30:44.977Z,13.27
2022-08-27T02:35:46.702Z,12.43
2022-08-27T02:40:48.446Z,16.17
2022-08-27T02:45:51.641Z,18.05
2022-08-27T02:50:54.456Z,17.50
2022-08-27T02:55:56.236Z,22.02
2022-08-27T03:00:58.021Z,17.27
2022-08-27T03:05:59.995Z,16.33
2022-08-27T03:11:01.859Z,18.95
2022-08-27T03:16:04.870Z,20.48
2022-08-27T03:21:08.147Z,21.20
2022-08-27T03:26:12.165Z,22.17
2022-08-27T03:36:23.167Z,24.92
2022-08-27T03:41:47.257Z,21.05
2022-08-27T03:46:47.252Z,14.18
2022-08-27T03:51:51.824Z,13.45
2022-08-27T03:56:53.631Z,16.25
2022-08-27T04:01:55.577Z,19.02
2022-08-27T04:06:58.927Z,20.33
2022-08-27T04:12:00.969Z,22.98
2022-08-27T04:17:03.466Z,14.88
2022-08-27T04:22:06.867Z,20.75
2022-08-27T04:27:09.135Z,23.08
2022-08-27T04:32:11.372Z,19.52
2022-08-27T04:37:13.119Z,20.67
2022-08-27T04:42:18.241Z,20.92
2022-08-27T04:47:20.517Z,25.70
2022-08-27T04:52:22.289Z,16.58
2022-08-27T04:57:24.180Z,21.42
2022-08-27T05:02:27.644Z,21.98
2022-08-27T05:07:29.383Z,20.98
2022-08-27T05:12:31.433Z,22.85
2022-08-27T05:17:33.814Z,18.90
2022-08-27T05:22:35.634Z,16.02
2022-08-27T05:27:37.430Z,22.70
2022-08-27T05:32:39.709Z,15.93
2022-08-27T05:37:42.456Z,18.02
2022-08-27T05:42:49.271Z,19.42
2022-08-27T05:47:53.088Z,15.63
2022-08-27T05:52:54.905Z,20.88
2022-08-27T05:57:56.637Z,14.82
2022-08-27T06:02:58.510Z,16.27
2022-08-27T06:08:00.279Z,14.13
2022-08-27T06:13:03.442Z,14.18
2022-08-27T06:18:05.304Z,13.53
2022-08-27T06:23:07.173Z,16.77
2022-08-27T06:28:09.040Z,18.20
2022-08-27T06:33:10.880Z,16.15
2022-08-27T06:38:12.653Z,15.55
2022-08-27T06:43:14.405Z,18.50
2022-08-27T06:48:16.688Z,12.90
2022-08-27T06:53:18.491Z,15.27
2022-08-27T06:58:26.623Z,13.50
2022-08-27T07:03:28.479Z,24.30
2022-08-27T07:08:30.338Z,16.70
2022-08-27T07:13:32.139Z,19.45
2022-08-27T07:18:33.993Z,16.20
2022-08-27T07:23:37.573Z,12.85
2022-08-27T07:28:40.773Z,11.18
2022-08-27T07:33:46.065Z,17.60
2022-08-27T07:39:00.820Z,14.65
2022-08-27T07:44:25.983Z,13.32
2022-08-27T07:49:29.179Z,16.23
2022-08-27T07:54:31.020Z,15.52
2022-08-27T07:59:33.079Z,13.82
2022-08-27T08:04:35.429Z,19.88
2022-08-27T08:09:37.321Z,13.93
2022-08-27T08:14:39.085Z,14.27
2022-08-27T08:19:41.216Z,15.13
2022-08-27T08:24:42.984Z,13.35
2022-08-27T08:29:45.596Z,10.32
2022-08-27T08:34:47.670Z,12.83
2022-08-27T08:39:49.400Z,16.55
2022-08-27T08:44:53.657Z,11.13
2022-08-27T08:50:19.854Z,13.85
2022-08-27T08:55:31.270Z,8.85
2022-08-27T09:00:34.041Z,11.13
2022-08-27T09:05:39.819Z,11.30
2022-08-27T09:10:55.544Z,12.13
2022-08-27T09:16:01.980Z,11.38
2022-08-27T09:21:32.098Z,10.00
2022-08-27T09:26:39.447Z,11.27
2022-08-27T09:31:41.498Z,11.25
2022-08-27T09:36:59.955Z,13.20
2022-08-27T09:42:03.418Z,10.23
2022-08-27T09:52:37.882Z,10.57
2022-08-27T09:57:41.841Z,10.88
2022-08-27T10:02:54.908Z,13.07
2022-08-27T10:08:02.434Z,11.13
2022-08-27T10:13:19.767Z,8.35
2022-08-27T10:18:54.063Z,7.15
2022-08-27T10:24:19.777Z,7.28
2022-08-27T10:29:32.477Z,8.48
2022-08-27T10:34:38.601Z,7.27
2022-08-27T10:39:53.852Z,7.20
2022-08-27T10:45:41.624Z,6.68
2022-08-27T10:50:56.786Z,6.75
2022-08-27T10:56:21.713Z,5.80
2022-08-27T11:01:40.306Z,6.65
2022-08-27T11:06:53.125Z,5.22
2022-08-27T11:12:14.429Z,4.72
2022-08-27T11:17:23.665Z,5.80
2022-08-27T11:22:34.564Z,6.05
2022-08-27T11:27:37.761Z,4.45
2022-08-27T11:38:08.251Z,5.07
2022-08-27T11:43:15.387Z,6.10
2022-08-27T11:48:30.065Z,5.43
2022-08-27T11:53:52.447Z,5.30
2022-08-27T11:58:54.909Z,5.57
2022-08-27T12:04:06.455Z,5.53
2022-08-27T12:09:19.370Z,4.97
2022-08-27T12:14:43.048Z,4.43
2022-08-27T12:20:17.115Z,6.22
2022-08-27T12:25:22.866Z,9.50
2022-08-27T12:30:34.557Z,7.32
2022-08-27T12:35:52.435Z,4.47
2022-08-27T12:41:00.127Z,5.68
2022-08-27T12:46:04.526Z,6.05
2022-08-27T12:51:14.575Z,5.57
2022-08-27T12:56:42.200Z,4.25
2022-08-27T13:02:00.323Z,4.70
2022-08-27T13:07:02.319Z,7.70
2022-08-27T13:12:15.529Z,7.07
2022-08-27T13:17:20.942Z,9.30
2022-08-27T13:22:43.477Z,5.82
2022-08-27T13:27:53.610Z,5.38
2022-08-27T13:32:57.398Z,8.38
2022-08-27T13:38:00.010Z,7.90
2022-08-27T13:43:11.809Z,10.73
2022-08-27T13:48:17.137Z,6.85
2022-08-27T13:53:42.425Z,6.18
2022-08-27T13:58:44.213Z,26.13
2022-08-27T14:04:04.618Z,13.95
2022-08-27T14:09:16.055Z,10.88
2022-08-27T14:14:19.051Z,5.63
2022-08-27T14:19:36.727Z,4.80
2022-08-27T14:24:38.877Z,6.93
2022-08-27T14:29:40.766Z,5.55
2022-08-27T14:34:42.694Z,5.72
2022-08-27T14:39:44.928Z,5.90
2022-08-27T14:44:47.409Z,6.18
2022-08-27T14:49:49.853Z,7.07
2022-08-27T14:54:51.652Z,7.10
2022-08-27T14:59:53.488Z,6.00
2022-08-27T15:04:55.332Z,5.68
2022-08-27T15:15:00.588Z,10.07
2022-08-27T15:20:06.017Z,7.72
2022-08-27T15:25:09.594Z,7.40
2022-08-27T15:30:14.100Z,6.75
2022-08-27T15:35:19.922Z,4.70
2022-08-27T15:40:22.594Z,6.10
2022-08-27T15:45:25.549Z,6.97
2022-08-27T15:50:31.065Z,6.60
2022-08-27T15:55:38.592Z,6.32
2022-08-27T16:00:41.771Z,5.55
2022-08-27T16:05:46.020Z,5.78
2022-08-27T16:10:47.849Z,10.50
2022-08-27T16:15:49.661Z,6.57
2022-08-27T16:20:51.559Z,8.80
2022-08-27T16:25:55.917Z,8.73
2022-08-27T16:30:58.333Z,6.10
2022-08-27T16:36:01.083Z,6.95
2022-08-27T16:41:03.844Z,8.37
2022-08-27T16:46:06.201Z,7.97
2022-08-27T16:51:19.807Z,6.88
2022-08-27T17:01:30.534Z,7.43
2022-08-27T17:06:32.443Z,7.47
2022-08-27T17:11:35.574Z,7.20
2022-08-27T17:16:37.638Z,7.05
2022-08-27T17:21:39.793Z,8.05
2022-08-27T17:26:46.838Z,9.45
2022-08-27T17:31:48.646Z,8.57
2022-08-27T17:36:54.293Z,8.25
2022-08-27T17:41:56.090Z,10.35
2022-08-27T17:47:00.840Z,11.88
2022-08-27T17:52:06.885Z,8.05
2022-08-27T17:57:27.621Z,8.75
2022-08-27T18:02:36.372Z,10.75
2022-08-27T18:07:40.124Z,8.68
2022-08-27T18:12:43.235Z,10.48
2022-08-27T18:17:45.394Z,7.38
2022-08-27T18:22:49.119Z,8.05
2022-08-27T18:27:55.819Z,9.02
2022-08-27T18:32:58.419Z,9.57
2022-08-27T18:38:00.732Z,11.70
2022-08-27T18:43:04.312Z,8.13
2022-08-27T18:48:22.418Z,10.15
2022-08-27T18:53:27.423Z,9.35
2022-08-27T18:58:29.279Z,11.20
2022-08-27T19:03:37.002Z,11.48
2022-08-27T19:08:39.754Z,11.00
2022-08-27T19:13:41.989Z,9.82
2022-08-27T19:18:44.737Z,8.43
2022-08-27T19:23:47.850Z,8.65
2022-08-27T19:28:49.657Z,10.77
2022-08-27T19:33:52.150Z,9.27
2022-08-27T19:38:54.007Z,9.77
2022-08-27T19:43:56.012Z,9.77
2022-08-27T19:48:58.226Z,9.57
2022-08-27T19:54:00.024Z,12.23
2022-08-27T19:59:16.253Z,13.50
2022-08-27T20:04:23.425Z,8.35
2022-08-27T20:09:26.027Z,10.23
2022-08-27T20:14:28.185Z,10.00
2022-08-27T20:19:32.796Z,10.50
2022-08-27T20:24:37.309Z,11.10
2022-08-27T20:29:41.002Z,11.70
2022-08-27T20:34:42.832Z,11.55
2022-08-27T20:39:44.704Z,9.63
2022-08-27T20:44:47.351Z,10.88
2022-08-27T20:49:49.309Z,14.27
2022-08-27T20:54:51.273Z,11.23
2022-08-27T21:00:11.608Z,19.23
2022-08-27T21:05:15.995Z,14.27
2022-08-27T21:10:19.509Z,10.88
2022-08-27T21:15:21.323Z,9.45
2022-08-27T21:20:23.148Z,9.80
2022-08-27T21:25:26.864Z,8.57
2022-08-27T21:30:28.761Z,10.55
2022-08-27T21:35:31.851Z,7.90
2022-08-27T21:40:33.695Z,7.47
2022-08-27T21:45:36.274Z,7.97
2022-08-27T21:50:38.231Z,10.93
2022-08-27T21:55:40.074Z,8.20
2022-08-27T22:00:47.815Z,10.07
2022-08-27T22:05:50.477Z,10.07
2022-08-27T22:10:56.243Z,11.50
2022-08-27T22:15:58.138Z,10.57
2022-08-27T22:21:00.119Z,10.30
2022-08-27T22:26:01.935Z,8.65
2022-08-27T22:31:03.791Z,9.60
2022-08-27T22:36:05.772Z,9.10
2022-08-27T22:41:07.680Z,7.70
2022-08-27T22:46:11.872Z,8.38
2022-08-27T22:51:15.471Z,6.85
2022-08-27T22:56:17.265Z,9.30
2022-08-27T23:06:23.592Z,7.13
2022-08-27T23:11:25.529Z,9.25
2022-08-27T23:16:28.220Z,8.98
2022-08-27T23:21:30.144Z,8.65
2022-08-27T23:26:50.536Z,9.38
2022-08-27T23:31:52.630Z,7.85
2022-08-27T23:36:56.114Z,8.80
2022-08-27T23:41:57.876Z,8.80
2022-08-27T23:47:01.058Z,9.40
2022-08-27T23:52:04.024Z,8.57
2022-08-27T23:57:05.876Z,10.40
